Huron Township, Michigan
Current Conditions -  °F | °C
As of 9:53 AM on Saturday 22 Nov 2014 (Local Time) from KDTW Reporting Station
Haze Haze  
Wind Chill: 25°   Ceiling: 2500
Heat Index: 33°   Visibility: 4mi
Dew Point: 31°   Wind: 9mph
Humidity: 92%   Direction: 180°S
Pressure: 30.11"   Gusts: NA
Location:  42.1166°N, 83.4023°W
Report Text: KDTW 221453Z 18008KT 4SM BR SCT008 OVC025 01/M01 A3011 RMK AO2 SLP204 60003 T00061006 58018 $
Loading
Personal Weather Stations






























Interactive Weather Map New forecast layout! Learn more

10-Day Weather Forecast

Advertisements
Track Severe Weather on mobile